Time;durP1;ratioP1;P1;durP2;ratioP2;P2;SDS_P1;SDS_P2;PMS_P1;PMS_P2;Temp;Humidity;BMP_temperature;BMP_pressure;BME280_temperature;BME280_humidity;BME280_pressure;Samples;Min_cycle;Max_cycle;Signal;HPM_P1;HPM_P2
2022/02/06 00:00:59;;;;;;;3.05;1.35;;;1.10;95.70;;;;;;2096575;28;20183;-75
2022/02/06 00:02:00;;;;;;;2.85;1.27;;;1.10;95.50;;;;;;2088783;28;20187;-75
2022/02/06 00:03:02;;;;;;;5.43;1.00;;;1.10;95.30;;;;;;2088894;28;20649;-74
2022/02/06 00:04:03;;;;;;;3.38;1.00;;;1.20;95.20;;;;;;2096535;28;20179;-75
2022/02/06 00:05:05;;;;;;;4.68;1.30;;;1.20;94.90;;;;;;2088141;28;20226;-74
2022/02/06 00:06:07;;;;;;;6.22;1.10;;;1.10;94.80;;;;;;2080090;28;20181;-75
2022/02/06 00:07:08;;;;;;;2.92;1.10;;;1.00;95.00;;;;;;2088508;28;20669;-75
2022/02/06 00:08:11;;;;;;;5.57;1.10;;;1.00;95.00;;;;;;2088258;28;20180;-74
2022/02/06 00:09:12;;;;;;;2.03;1.13;;;1.00;95.10;;;;;;2096459;28;20179;-74
2022/02/06 00:10:13;;;;;;;1.83;1.23;;;0.90;95.60;;;;;;2087869;28;20176;-74
2022/02/06 00:11:13;;;;;;;5.10;1.10;;;0.90;96.50;;;;;;2079958;28;20173;-75
2022/02/06 00:12:15;;;;;;;1.90;1.00;;;0.90;96.10;;;;;;2088203;28;20433;-74
2022/02/06 00:13:16;;;;;;;3.95;1.20;;;0.80;96.30;;;;;;2088310;28;20206;-74
2022/02/06 00:14:16;;;;;;;5.05;1.65;;;0.80;96.60;;;;;;2096470;28;20187;-75
2022/02/06 00:15:19;;;;;;;3.33;1.20;;;0.80;96.70;;;;;;2088194;28;20187;-75
2022/02/06 00:16:19;;;;;;;3.25;1.17;;;0.80;96.70;;;;;;2088506;28;20307;-74
2022/02/06 00:17:20;;;;;;;1.77;0.93;;;0.80;96.60;;;;;;2088365;28;20191;-74
2022/02/06 00:18:21;;;;;;;4.47;1.10;;;0.80;96.70;;;;;;2079925;28;20178;-74
2022/02/06 00:19:21;;;;;;;5.37;1.00;;;0.90;96.80;;;;;;2088143;28;20168;-74
2022/02/06 00:20:29;;;;;;;4.23;1.00;;;0.90;96.60;;;;;;2097121;28;20183;-74
2022/02/06 00:21:32;;;;;;;4.22;0.90;;;0.90;96.00;;;;;;2096442;28;20684;-74
2022/02/06 00:22:43;;;;;;;1.65;0.77;;;0.90;96.20;;;;;;2096419;28;20233;-74
2022/02/06 00:23:47;;;;;;;2.92;1.00;;;0.90;96.40;;;;;;2096534;28;20167;-74
2022/02/06 00:24:57;;;;;;;3.55;1.02;;;0.90;96.20;;;;;;2089919;28;20233;-75
2022/02/06 00:26:05;;;;;;;4.28;0.90;;;0.80;96.60;;;;;;2096633;28;20190;-74
2022/02/06 00:27:11;;;;;;;3.13;1.42;;;0.80;96.70;;;;;;2096446;28;20286;-74
2022/02/06 00:28:20;;;;;;;2.03;0.90;;;0.80;96.70;;;;;;2090005;28;20168;-74
2022/02/06 00:29:35;;;;;;;2.38;0.98;;;0.80;96.60;;;;;;2097132;28;20712;-74
2022/02/06 00:30:42;;;;;;;2.92;1.10;;;0.80;96.50;;;;;;2098864;28;20269;-74
2022/02/06 00:31:57;;;;;;;1.55;0.85;;;0.70;96.60;;;;;;2097993;28;20179;-74
2022/02/06 00:34:03;;;;;;;1.50;0.80;;;0.70;97.00;;;;;;2091971;28;20175;-74
2022/02/06 00:34:45;;;;;;;3.53;0.93;;;0.80;97.00;;;;;;2086965;28;20203;-75
2022/02/06 00:38:09;;;;;;;2.22;0.80;;;0.80;96.30;;;;;;2089881;28;20742;-74
2022/02/06 00:39:10;;;;;;;4.85;0.80;;;0.90;96.40;;;;;;2084261;28;20172;-74
2022/02/06 00:40:12;;;;;;;6.60;1.20;;;0.90;96.60;;;;;;2083974;28;20339;-74
2022/02/06 00:41:21;;;;;;;3.55;1.17;;;0.80;96.30;;;;;;2097991;28;20688;-74
2022/02/06 00:42:22;;;;;;;4.13;0.98;;;0.90;96.20;;;;;;2089906;28;20684;-75
2022/02/06 00:43:24;;;;;;;4.33;0.90;;;0.80;96.10;;;;;;2090934;28;20176;-74
2022/02/06 00:44:25;;;;;;;2.22;0.75;;;0.80;96.20;;;;;;2097561;28;20233;-74
2022/02/06 00:45:25;;;;;;;3.27;0.97;;;0.80;96.40;;;;;;2081409;28;20250;-74
2022/02/06 00:46:26;;;;;;;2.83;1.70;;;0.90;96.70;;;;;;2081176;28;20200;-74
2022/02/06 00:47:28;;;;;;;2.77;0.70;;;0.90;96.30;;;;;;2097924;28;20176;-74
2022/02/06 00:48:32;;;;;;;1.13;0.73;;;0.90;96.30;;;;;;2097973;28;20191;-74
2022/02/06 00:49:33;;;;;;;4.22;1.10;;;0.90;96.00;;;;;;2097793;28;20207;-74
2022/02/06 00:50:38;;;;;;;3.53;0.98;;;0.90;96.10;;;;;;2098036;28;20202;-74
2022/02/06 00:51:49;;;;;;;5.63;1.50;;;0.90;95.80;;;;;;2090256;28;20184;-74
2022/02/06 00:53:02;;;;;;;3.85;1.15;;;0.90;95.70;;;;;;2098177;28;20163;-74
2022/02/06 00:54:02;;;;;;;2.25;0.90;;;0.90;95.90;;;;;;2097887;28;20167;-74
2022/02/06 00:55:04;;;;;;;2.00;0.90;;;0.90;96.20;;;;;;2091011;28;20584;-74
2022/02/06 00:56:05;;;;;;;2.58;1.13;;;0.90;96.10;;;;;;2097722;28;20286;-74
2022/02/06 00:57:06;;;;;;;5.40;1.07;;;0.80;96.20;;;;;;2097993;28;20209;-74
2022/02/06 00:58:07;;;;;;;2.93;0.87;;;0.70;96.50;;;;;;2089743;28;20222;-74
2022/02/06 00:59:08;;;;;;;4.50;2.10;;;0.80;96.70;;;;;;2097856;28;20197;-74
2022/02/06 01:00:09;;;;;;;3.80;1.02;;;0.80;96.50;;;;;;2097878;28;20610;-74
2022/02/06 01:01:10;;;;;;;1.83;1.20;;;0.90;96.40;;;;;;2097919;28;20191;-76
2022/02/06 01:02:11;;;;;;;5.38;0.90;;;0.90;96.10;;;;;;2097901;28;20238;-74
2022/02/06 01:03:11;;;;;;;1.57;0.90;;;0.90;96.00;;;;;;2089744;28;20716;-73
2022/02/06 01:04:14;;;;;;;4.87;1.20;;;0.90;95.90;;;;;;2089501;28;20192;-74
2022/02/06 01:05:14;;;;;;;4.80;1.17;;;0.90;95.70;;;;;;2097683;28;20664;-74
2022/02/06 01:06:15;;;;;;;3.50;1.20;;;0.90;95.70;;;;;;2089448;28;20200;-73
2022/02/06 01:07:16;;;;;;;1.27;0.80;;;0.90;95.90;;;;;;2081389;28;20189;-74
2022/02/06 01:08:16;;;;;;;4.33;1.00;;;0.80;96.60;;;;;;2097875;28;20683;-73
2022/02/06 01:09:17;;;;;;;3.33;1.33;;;0.80;96.90;;;;;;2097736;28;20479;-74
2022/02/06 01:10:18;;;;;;;3.67;1.30;;;0.70;97.00;;;;;;2089611;28;20180;-75
2022/02/06 01:11:18;;;;;;;5.33;1.70;;;0.70;97.80;;;;;;2089459;28;20192;-76
2022/02/06 01:12:24;;;;;;;1.80;1.27;;;0.70;97.70;;;;;;2097786;28;20206;-75
2022/02/06 01:13:40;;;;;;;3.22;0.82;;;0.70;97.60;;;;;;2097748;28;20554;-75
2022/02/06 01:14:53;;;;;;;5.22;0.80;;;0.80;97.50;;;;;;2091487;28;20208;-75
2022/02/06 01:16:11;;;;;;;1.95;0.80;;;0.80;97.20;;;;;;2098035;28;20163;-75
2022/02/06 01:17:26;;;;;;;1.25;0.73;;;0.80;97.00;;;;;;2097832;28;20179;-75
2022/02/06 01:18:33;;;;;;;1.77;1.00;;;0.90;96.40;;;;;;2093749;28;20163;-75
2022/02/06 01:19:48;;;;;;;2.53;0.90;;;1.00;96.30;;;;;;2092230;28;20207;-75
2022/02/06 01:20:58;;;;;;;3.35;0.77;;;1.00;95.90;;;;;;2091463;28;20259;-74
2022/02/06 01:22:04;;;;;;;2.28;0.80;;;1.00;95.60;;;;;;2097846;28;20172;-75
2022/02/06 01:23:07;;;;;;;2.88;0.90;;;1.00;95.50;;;;;;2098381;28;20164;-75
2022/02/06 01:24:18;;;;;;;3.17;1.05;;;1.00;95.30;;;;;;2097735;28;20261;-75
2022/02/06 01:25:27;;;;;;;6.03;1.50;;;1.00;95.40;;;;;;2090839;28;20188;-75
2022/02/06 01:26:39;;;;;;;1.55;0.90;;;1.00;95.60;;;;;;2090569;28;20172;-75
2022/02/06 01:27:50;;;;;;;4.18;1.05;;;0.90;95.70;;;;;;2091799;28;20188;-75
2022/02/06 01:29:03;;;;;;;1.52;0.98;;;1.00;95.40;;;;;;2097841;28;20167;-75
2022/02/06 01:30:14;;;;;;;3.03;1.05;;;1.00;95.30;;;;;;2097764;28;20172;-75
2022/02/06 01:32:23;;;;;;;6.05;1.10;;;1.00;95.00;;;;;;2091172;28;20230;-75
2022/02/06 01:33:31;;;;;;;2.35;1.05;;;1.10;95.00;;;;;;2090299;28;20165;-75
2022/02/06 01:34:41;;;;;;;4.22;1.38;;;1.10;95.00;;;;;;2097669;28;20191;-75
2022/02/06 01:36:50;;;;;;;2.20;0.90;;;1.10;95.30;;;;;;2083234;28;20191;-75
2022/02/06 01:38:16;;;;;;;5.95;1.15;;;1.10;95.30;;;;;;2097762;28;20190;-74
2022/02/06 01:39:39;;;;;;;2.08;0.88;;;1.10;95.30;;;;;;2097742;28;20190;-75
2022/02/06 01:41:45;;;;;;;2.73;0.70;;;1.10;95.40;;;;;;2097490;28;20187;-75
2022/02/06 01:42:57;;;;;;;3.65;0.95;;;1.10;95.80;;;;;;2090158;28;20199;-75
2022/02/06 01:44:13;;;;;;;2.42;0.82;;;1.10;95.40;;;;;;2090652;28;20173;-75
2022/02/06 01:46:26;;;;;;;2.63;1.00;;;1.00;96.10;;;;;;2091401;28;20195;-75
2022/02/06 02:00:58;;;;;;;3.25;1.00;;;1.00;95.90;;;;;;2097494;28;20180;-75
2022/02/06 02:02:11;;;;;;;1.88;1.20;;;1.00;96.10;;;;;;2091248;28;20183;-75
2022/02/06 02:04:34;;;;;;;1.65;0.90;;;1.00;96.00;;;;;;2090047;28;20214;-75
2022/02/06 02:07:15;;;;;;;4.40;0.90;;;1.10;95.90;;;;;;2097389;28;20609;-75
2022/02/06 02:10:59;;;;;;;3.28;1.33;;;1.10;96.10;;;;;;2092082;28;20192;-75
2022/02/06 02:22:28;;;;;;;3.43;0.70;;;1.20;95.50;;;;;;2097867;28;20222;-75
2022/02/06 02:24:57;;;;;;;2.47;0.88;;;1.20;95.30;;;;;;2094228;28;20182;-75
2022/02/06 02:27:11;;;;;;;3.85;0.80;;;1.20;95.20;;;;;;2097504;28;20225;-75
2022/02/06 02:32:27;;;;;;;2.05;1.10;;;1.20;95.70;;;;;;2097445;28;20183;-75
2022/02/06 02:42:56;;;;;;;6.47;1.00;;;1.20;95.30;;;;;;2097692;28;20211;-75
2022/02/06 02:43:07;;;;;;;5.43;0.90;;;1.30;95.50;;;;;;2097921;28;20172;-74
2022/02/06 02:46:53;;;;;;;2.50;0.60;;;1.30;95.30;;;;;;2097209;28;20226;-74
2022/02/06 02:48:01;;;;;;;2.65;0.90;;;1.30;95.00;;;;;;2101626;28;20165;-75
2022/02/06 02:49:02;;;;;;;3.83;0.73;;;1.30;95.10;;;;;;2100685;28;20173;-75
2022/02/06 02:50:10;;;;;;;2.88;0.80;;;1.30;95.00;;;;;;2093345;28;20181;-75
2022/02/06 02:51:12;;;;;;;4.47;0.95;;;1.30;95.20;;;;;;2094543;28;20729;-75
2022/02/06 02:52:23;;;;;;;2.50;0.90;;;1.20;95.50;;;;;;2094556;28;20207;-75
2022/02/06 02:54:29;;;;;;;1.80;0.80;;;1.30;95.20;;;;;;2101416;28;20569;-75
2022/02/06 02:56:49;;;;;;;3.60;0.77;;;1.30;95.00;;;;;;2085588;28;20238;-75
2022/02/06 03:00:25;;;;;;;3.58;1.30;;;1.30;95.10;;;;;;2101325;28;20171;-75
2022/02/06 03:01:38;;;;;;;3.00;0.70;;;1.30;95.10;;;;;;2101018;28;20172;-75
2022/02/06 03:02:39;;;;;;;4.75;1.10;;;1.30;95.00;;;;;;2096945;28;20212;-75
2022/02/06 03:03:41;;;;;;;3.97;0.77;;;1.40;95.00;;;;;;2100937;28;20604;-75
2022/02/06 03:04:46;;;;;;;3.10;0.80;;;1.40;94.80;;;;;;2101325;28;20691;-75
2022/02/06 03:05:50;;;;;;;2.10;1.10;;;1.40;95.00;;;;;;2101336;28;20578;-76
2022/02/06 03:06:51;;;;;;;1.90;0.70;;;1.30;95.30;;;;;;2101813;28;20274;-75
2022/02/06 03:07:53;;;;;;;2.15;1.20;;;1.30;95.60;;;;;;2102137;28;20211;-76
2022/02/06 03:08:55;;;;;;;8.57;1.33;;;1.30;95.70;;;;;;2101197;28;20199;-74
2022/02/06 03:09:56;;;;;;;3.90;0.88;;;1.30;95.50;;;;;;2093568;28;20179;-75
2022/02/06 03:10:59;;;;;;;2.40;0.67;;;1.40;95.30;;;;;;2101083;28;20177;-75
2022/02/06 03:12:00;;;;;;;4.68;1.13;;;1.40;95.20;;;;;;2101061;28;20255;-75
2022/02/06 03:13:05;;;;;;;3.87;0.87;;;1.40;95.30;;;;;;2082721;28;20180;-75
2022/02/06 03:14:19;;;;;;;2.35;0.82;;;1.40;95.40;;;;;;2089280;28;20650;-75
2022/02/06 03:15:34;;;;;;;4.75;1.13;;;1.50;95.40;;;;;;2097346;28;20346;-75
2022/02/06 03:16:38;;;;;;;1.27;1.00;;;1.40;95.20;;;;;;2088539;28;20652;-75
2022/02/06 03:17:45;;;;;;;4.25;0.90;;;1.40;95.10;;;;;;2089065;28;20221;-74
2022/02/06 03:19:55;;;;;;;2.58;0.90;;;1.40;95.40;;;;;;2097636;28;20203;-75
2022/02/06 03:20:56;;;;;;;2.60;1.75;;;1.40;95.30;;;;;;2096954;28;20171;-75
2022/02/06 03:21:57;;;;;;;2.00;0.87;;;1.40;95.10;;;;;;2089466;28;20193;-75
2022/02/06 03:23:02;;;;;;;4.95;1.00;;;1.40;95.10;;;;;;2097092;28;20937;-75
2022/02/06 03:24:28;;;;;;;4.00;1.05;;;1.40;95.20;;;;;;2097455;28;20184;-75
2022/02/06 03:25:27;;;;;;;2.42;1.17;;;1.40;95.40;;;;;;2096488;28;20203;-75
2022/02/06 03:26:28;;;;;;;1.57;0.90;;;1.40;95.10;;;;;;2082995;28;20220;-74
2022/02/06 03:27:28;;;;;;;2.83;0.90;;;1.40;95.20;;;;;;2080516;28;20428;-75
2022/02/06 03:28:29;;;;;;;1.97;0.90;;;1.40;95.30;;;;;;2088710;28;20182;-74
2022/02/06 03:29:30;;;;;;;3.40;0.97;;;1.30;95.10;;;;;;2088649;28;20230;-74
2022/02/06 03:30:30;;;;;;;2.57;1.00;;;1.40;94.80;;;;;;2088717;28;20191;-75
2022/02/06 03:31:31;;;;;;;3.73;1.10;;;1.40;94.90;;;;;;2096963;28;20178;-75
2022/02/06 03:32:32;;;;;;;4.10;1.00;;;1.40;94.70;;;;;;2096787;28;20197;-75
2022/02/06 03:33:32;;;;;;;3.13;1.00;;;1.40;94.70;;;;;;2088735;28;20285;-74
2022/02/06 03:34:33;;;;;;;3.13;1.10;;;1.40;94.50;;;;;;2088518;28;20191;-74
2022/02/06 03:35:35;;;;;;;5.93;1.27;;;1.50;94.20;;;;;;2097132;28;20604;-74
2022/02/06 03:36:36;;;;;;;2.40;0.95;;;1.50;94.20;;;;;;2105176;28;20274;-74
2022/02/06 03:37:37;;;;;;;2.15;1.08;;;1.50;94.20;;;;;;2096933;28;20192;-75
2022/02/06 03:38:37;;;;;;;5.87;1.37;;;1.50;94.40;;;;;;2088705;28;20180;-74
2022/02/06 03:39:39;;;;;;;2.10;1.00;;;1.50;94.40;;;;;;2097036;28;20188;-74
2022/02/06 03:40:52;;;;;;;3.40;0.80;;;1.30;94.90;;;;;;2096838;28;20180;-75
2022/02/06 03:42:05;;;;;;;3.70;0.85;;;1.40;94.90;;;;;;2097044;28;20173;-75
2022/02/06 03:43:12;;;;;;;1.27;1.02;;;1.40;94.70;;;;;;2096754;28;20196;-74
2022/02/06 03:44:23;;;;;;;3.03;0.93;;;1.40;94.70;;;;;;2089522;28;20581;-74
2022/02/06 03:45:26;;;;;;;0.90;0.70;;;1.40;94.80;;;;;;2096912;28;20645;-75
2022/02/06 03:46:31;;;;;;;2.65;0.90;;;1.30;95.40;;;;;;2096668;28;20187;-74
2022/02/06 03:47:49;;;;;;;2.83;0.80;;;1.40;95.20;;;;;;2097639;28;20190;-75
2022/02/06 03:50:04;;;;;;;2.30;0.98;;;1.40;94.90;;;;;;2100551;28;20179;-75
2022/02/06 03:51:06;;;;;;;2.42;0.70;;;1.40;94.90;;;;;;2105172;28;20182;-75
2022/02/06 03:52:07;;;;;;;1.80;0.80;;;1.40;95.10;;;;;;2104481;28;20697;-75
2022/02/06 03:53:11;;;;;;;1.10;1.00;;;1.30;95.30;;;;;;2096640;28;20191;-74
2022/02/06 03:54:12;;;;;;;3.85;1.23;;;1.30;95.20;;;;;;2088777;28;20648;-75
2022/02/06 03:55:19;;;;;;;4.40;0.97;;;1.40;95.00;;;;;;2097101;28;20261;-74
2022/02/06 03:56:21;;;;;;;2.05;0.90;;;1.40;94.80;;;;;;2105268;28;20578;-74
2022/02/06 03:57:22;;;;;;;3.70;1.20;;;1.40;95.00;;;;;;2097771;28;20267;-75
2022/02/06 03:58:23;;;;;;;2.37;1.10;;;1.40;94.90;;;;;;2096928;28;20180;-74
2022/02/06 03:59:23;;;;;;;2.20;0.80;;;1.40;95.10;;;;;;2088409;28;20181;-75
2022/02/06 04:00:25;;;;;;;3.67;1.10;;;1.40;95.10;;;;;;2081114;28;20708;-75
2022/02/06 04:01:27;;;;;;;2.97;1.05;;;1.40;95.20;;;;;;2088513;28;20177;-75
2022/02/06 04:02:27;;;;;;;3.63;1.00;;;1.40;95.40;;;;;;2096542;28;20691;-75
2022/02/06 04:03:28;;;;;;;0.90;0.70;;;1.40;95.40;;;;;;2096709;28;20186;-74
2022/02/06 04:04:29;;;;;;;2.17;1.00;;;1.40;95.20;;;;;;2104543;28;20237;-74
2022/02/06 04:05:31;;;;;;;4.13;1.27;;;1.40;94.90;;;;;;2105004;28;20635;-75
2022/02/06 04:06:31;;;;;;;4.70;1.13;;;1.40;95.00;;;;;;2096644;28;20603;-75
2022/02/06 04:07:32;;;;;;;5.57;1.47;;;1.40;94.90;;;;;;2096640;28;20214;-75
2022/02/06 04:08:35;;;;;;;2.53;0.80;;;1.50;94.80;;;;;;2096629;28;20652;-75
2022/02/06 04:09:46;;;;;;;2.58;1.27;;;1.50;94.40;;;;;;2096695;28;20238;-75
2022/02/06 04:10:50;;;;;;;4.15;1.00;;;1.40;94.40;;;;;;2090179;28;20238;-75
2022/02/06 04:11:53;;;;;;;1.45;0.90;;;1.40;94.60;;;;;;2090099;28;20209;-75
2022/02/06 04:12:54;;;;;;;4.05;1.20;;;1.30;95.10;;;;;;2096649;28;20185;-75
2022/02/06 04:14:09;;;;;;;4.23;0.90;;;1.30;95.20;;;;;;2096988;28;20177;-75
2022/02/06 04:15:21;;;;;;;1.73;0.90;;;1.30;95.20;;;;;;2096470;28;20216;-75
2022/02/06 04:16:37;;;;;;;4.80;1.27;;;1.40;94.90;;;;;;2096654;28;20181;-75
2022/02/06 04:17:46;;;;;;;2.78;1.27;;;1.40;95.50;;;;;;2083552;28;20310;-75
2022/02/06 04:18:51;;;;;;;1.45;0.73;;;1.40;94.80;;;;;;2091551;28;20221;-75
2022/02/06 04:19:52;;;;;;;3.75;1.23;;;1.40;94.80;;;;;;2097324;28;20253;-75
2022/02/06 04:20:53;;;;;;;5.93;1.80;;;1.40;94.80;;;;;;2096414;28;20654;-75
2022/02/06 04:21:56;;;;;;;3.07;0.80;;;1.50;94.60;;;;;;2096633;28;20258;-75
2022/02/06 04:22:57;;;;;;;2.20;0.70;;;1.40;94.50;;;;;;2104909;28;20719;-75
2022/02/06 04:23:57;;;;;;;6.10;1.20;;;1.50;94.60;;;;;;2104948;28;20186;-75
2022/02/06 04:24:58;;;;;;;3.80;1.10;;;1.50;94.50;;;;;;2096475;28;20174;-75
2022/02/06 04:25:59;;;;;;;1.57;0.93;;;1.50;94.30;;;;;;2088161;28;20264;-75
2022/02/06 04:27:00;;;;;;;2.10;1.00;;;1.40;94.50;;;;;;2096554;28;20297;-75
2022/02/06 04:28:01;;;;;;;4.37;1.00;;;1.40;94.40;;;;;;2096622;28;20419;-75
2022/02/06 04:29:04;;;;;;;4.70;1.10;;;1.40;94.40;;;;;;2088201;28;20180;-75
2022/02/06 04:30:06;;;;;;;3.85;1.50;;;1.50;94.30;;;;;;2088611;28;20208;-75
2022/02/06 04:31:07;;;;;;;4.13;1.00;;;1.40;94.50;;;;;;2096562;28;20251;-75
2022/02/06 04:32:08;;;;;;;3.73;1.00;;;1.40;94.50;;;;;;2104759;28;20229;-75
2022/02/06 04:33:09;;;;;;;3.08;1.25;;;1.40;94.50;;;;;;2104980;28;20637;-75
2022/02/06 04:34:11;;;;;;;4.53;0.93;;;1.40;94.50;;;;;;2104873;28;20186;-75
2022/02/06 04:35:16;;;;;;;1.95;1.05;;;1.40;94.60;;;;;;2096444;28;20171;-75
2022/02/06 04:36:20;;;;;;;2.25;1.38;;;1.40;95.00;;;;;;2096452;28;20324;-75
2022/02/06 04:49:47;;;;;;;1.45;0.82;;;1.60;94.70;;;;;;2097204;28;20164;-75
2022/02/06 04:52:59;;;;;;;1.90;1.05;;;1.60;94.60;;;;;;2097378;28;20734;-75
2022/02/06 04:56:03;;;;;;;2.65;1.20;;;1.60;94.90;;;;;;2097212;28;20247;-74
2022/02/06 05:14:35;;;;;;;3.30;1.30;;;1.70;95.50;;;;;;2096716;28;20625;-74
2022/02/06 05:15:54;;;;;;;1.38;1.10;;;1.70;95.80;;;;;;2096435;28;20179;-74
2022/02/06 05:18:24;;;;;;;4.13;1.63;;;1.70;95.80;;;;;;2092949;28;20618;-75
2022/02/06 05:24:22;;;;;;;3.17;1.20;;;1.90;95.80;;;;;;2098654;28;20186;-75
2022/02/06 05:25:48;;;;;;;2.88;1.10;;;1.90;95.50;;;;;;2098189;28;20208;-75
2022/02/06 05:30:19;;;;;;;0.88;0.73;;;2.00;94.50;;;;;;2090297;28;20218;-75
2022/02/06 05:31:41;;;;;;;1.67;0.90;;;2.00;94.60;;;;;;2082624;28;20186;-75
2022/02/06 05:32:58;;;;;;;1.92;0.90;;;1.90;94.80;;;;;;2092288;28;20340;-75
2022/02/06 05:33:59;;;;;;;2.22;1.20;;;1.90;94.80;;;;;;2086339;28;20182;-75
2022/02/06 05:35:00;;;;;;;4.00;1.70;;;2.00;94.80;;;;;;2083268;28;20183;-76
2022/02/06 05:36:02;;;;;;;4.93;1.10;;;2.00;94.60;;;;;;2089423;28;20415;-75
2022/02/06 05:37:03;;;;;;;4.38;1.10;;;2.00;94.60;;;;;;2097713;28;20185;-75
2022/02/06 05:38:04;;;;;;;4.70;1.10;;;2.00;95.30;;;;;;2098444;28;20218;-75
2022/02/06 05:39:04;;;;;;;3.43;1.40;;;1.90;95.10;;;;;;2097593;28;20174;-75
2022/02/06 05:40:06;;;;;;;2.63;0.90;;;2.00;94.80;;;;;;2081159;28;20623;-75
2022/02/06 05:41:07;;;;;;;4.50;0.90;;;1.90;94.90;;;;;;2089415;28;20247;-75
2022/02/06 05:42:08;;;;;;;4.00;0.90;;;2.00;94.90;;;;;;2098279;28;20204;-75
2022/02/06 05:43:09;;;;;;;2.75;1.55;;;1.90;95.00;;;;;;2097534;28;20193;-75
2022/02/06 05:44:10;;;;;;;1.20;0.77;;;2.00;94.90;;;;;;2089373;28;20190;-75
2022/02/06 05:45:12;;;;;;;3.60;1.33;;;2.00;94.60;;;;;;2089346;28;20173;-75
2022/02/06 05:46:13;;;;;;;2.47;0.90;;;2.00;94.00;;;;;;2089493;28;20230;-75
2022/02/06 05:47:14;;;;;;;6.50;1.10;;;2.00;94.20;;;;;;2089205;28;20213;-75
2022/02/06 05:48:14;;;;;;;2.70;0.90;;;2.10;94.30;;;;;;2097642;28;20178;-75
2022/02/06 05:49:15;;;;;;;3.43;1.10;;;2.10;94.40;;;;;;2098124;28;20598;-75
2022/02/06 05:50:18;;;;;;;5.53;1.13;;;2.10;94.20;;;;;;2097640;28;20208;-75
2022/02/06 05:51:19;;;;;;;3.00;1.17;;;2.10;94.20;;;;;;2089563;28;20178;-75
2022/02/06 05:52:21;;;;;;;4.20;1.20;;;2.10;93.80;;;;;;2097401;28;20281;-75
2022/02/06 05:53:22;;;;;;;3.63;1.35;;;2.20;94.00;;;;;;2097457;28;20173;-75
2022/02/06 05:54:23;;;;;;;7.60;1.03;;;2.20;94.20;;;;;;2089018;28;20269;-75
2022/02/06 05:55:23;;;;;;;5.00;1.13;;;2.10;94.10;;;;;;2089169;28;20175;-75
2022/02/06 05:56:24;;;;;;;2.37;1.50;;;2.20;94.30;;;;;;2089269;28;20177;-75
2022/02/06 05:57:25;;;;;;;3.90;1.10;;;2.20;94.00;;;;;;2097358;28;20184;-75
2022/02/06 05:58:25;;;;;;;1.90;0.90;;;2.20;94.10;;;;;;2089307;28;20203;-75
2022/02/06 05:59:26;;;;;;;2.13;0.97;;;2.20;94.60;;;;;;2080787;28;20181;-74
2022/02/06 06:00:27;;;;;;;1.70;1.10;;;2.20;94.10;;;;;;2081038;28;20210;-75
2022/02/06 06:01:27;;;;;;;4.40;1.30;;;2.20;94.30;;;;;;2089180;28;20183;-74
2022/02/06 06:02:28;;;;;;;2.90;1.00;;;2.20;94.60;;;;;;2097430;28;20202;-75
2022/02/06 06:03:29;;;;;;;2.27;0.90;;;2.20;94.20;;;;;;2097695;28;20178;-75
2022/02/06 06:04:29;;;;;;;2.57;1.00;;;2.30;94.20;;;;;;2097927;28;20181;-75
2022/02/06 06:05:30;;;;;;;5.77;1.20;;;2.30;93.90;;;;;;2098121;28;20190;-75
2022/02/06 06:06:34;;;;;;;3.30;1.10;;;2.30;94.10;;;;;;2097298;28;20174;-75
2022/02/06 06:07:40;;;;;;;4.00;1.00;;;2.20;94.50;;;;;;2089290;28;20191;-75
2022/02/06 06:08:41;;;;;;;4.38;1.15;;;2.30;94.60;;;;;;2089901;28;20160;-75
2022/02/06 06:09:41;;;;;;;1.73;1.40;;;2.30;94.50;;;;;;2089186;28;20739;-75
2022/02/06 06:10:42;;;;;;;2.43;0.93;;;2.30;94.40;;;;;;2089022;28;20730;-75
2022/02/06 06:11:43;;;;;;;4.03;1.13;;;2.30;94.50;;;;;;2089197;28;20202;-75
2022/02/06 06:12:43;;;;;;;2.10;1.20;;;2.20;95.00;;;;;;2088988;28;20202;-74
2022/02/06 06:13:44;;;;;;;6.73;1.30;;;2.30;94.70;;;;;;2097449;28;20224;-75
2022/02/06 06:14:47;;;;;;;2.63;1.00;;;2.30;94.50;;;;;;2097847;28;20643;-74
2022/02/06 06:15:48;;;;;;;4.00;1.40;;;2.30;94.40;;;;;;2097402;28;20225;-74
2022/02/06 06:16:48;;;;;;;3.33;1.03;;;2.30;94.70;;;;;;2089270;28;20737;-75
2022/02/06 06:17:49;;;;;;;3.30;0.87;;;2.30;94.40;;;;;;2089093;28;20186;-74
2022/02/06 06:18:50;;;;;;;2.87;1.00;;;2.30;94.70;;;;;;2080569;28;20234;-75
2022/02/06 06:19:52;;;;;;;3.93;1.00;;;2.30;94.60;;;;;;2080729;28;20195;-74
2022/02/06 06:20:53;;;;;;;2.80;1.00;;;2.40;93.90;;;;;;2080976;28;20193;-75
2022/02/06 06:21:56;;;;;;;4.20;1.52;;;2.40;93.70;;;;;;2080957;28;20196;-75
2022/02/06 06:22:57;;;;;;;3.13;1.00;;;2.40;93.80;;;;;;2081283;28;20187;-75
2022/02/06 06:23:59;;;;;;;2.50;1.00;;;2.40;93.30;;;;;;2089062;28;20186;-75
2022/02/06 06:25:02;;;;;;;3.83;1.00;;;2.40;93.20;;;;;;2080752;28;20203;-75
2022/02/06 06:26:03;;;;;;;3.47;1.00;;;2.40;93.40;;;;;;2081695;28;20186;-75
2022/02/06 06:27:04;;;;;;;9.77;1.30;;;2.40;93.90;;;;;;2080737;28;20216;-74
2022/02/06 06:28:07;;;;;;;2.90;1.50;;;2.40;94.10;;;;;;2080783;28;20526;-75
2022/02/06 06:29:07;;;;;;;3.38;1.10;;;2.30;94.50;;;;;;2089114;28;20171;-74
2022/02/06 06:30:09;;;;;;;2.37;0.80;;;2.30;94.70;;;;;;2097309;28;20183;-75
2022/02/06 06:31:10;;;;;;;3.70;1.20;;;2.30;93.60;;;;;;2097173;28;20189;-75
2022/02/06 06:32:10;;;;;;;4.20;1.35;;;2.40;93.60;;;;;;2089073;28;20680;-75
2022/02/06 06:33:11;;;;;;;4.37;1.40;;;2.30;93.70;;;;;;2089110;28;20173;-75
2022/02/06 06:34:12;;;;;;;4.30;1.20;;;2.40;93.50;;;;;;2088928;28;20752;-74
2022/02/06 06:35:12;;;;;;;3.17;1.13;;;2.40;93.60;;;;;;2080483;28;20175;-75
2022/02/06 06:36:13;;;;;;;2.47;1.10;;;2.40;93.70;;;;;;2080729;28;20177;-74
2022/02/06 06:37:14;;;;;;;6.67;1.50;;;2.40;93.20;;;;;;2088961;28;20265;-75
2022/02/06 06:38:14;;;;;;;4.20;1.43;;;2.40;93.20;;;;;;2088977;28;20179;-74
2022/02/06 06:39:22;;;;;;;4.90;1.00;;;2.40;93.10;;;;;;2088696;28;20183;-74
2022/02/06 06:40:22;;;;;;;1.65;1.05;;;2.50;92.60;;;;;;2089898;28;20615;-75
2022/02/06 06:41:23;;;;;;;3.77;1.10;;;2.50;92.60;;;;;;2090592;28;20205;-75
2022/02/06 06:42:24;;;;;;;3.90;1.80;;;2.40;93.20;;;;;;2097200;28;20221;-75
2022/02/06 06:43:25;;;;;;;5.25;1.23;;;2.40;93.70;;;;;;2088891;28;20195;-75
2022/02/06 06:44:26;;;;;;;4.70;1.30;;;2.40;93.80;;;;;;2088964;28;20189;-75
2022/02/06 06:45:26;;;;;;;4.23;1.27;;;2.40;93.70;;;;;;2088853;28;20185;-75
2022/02/06 06:46:27;;;;;;;3.80;1.33;;;2.40;93.80;;;;;;2080516;28;20581;-75
2022/02/06 06:47:28;;;;;;;3.67;1.50;;;2.50;93.60;;;;;;2088670;28;20189;-75
2022/02/06 06:48:28;;;;;;;2.47;1.10;;;2.50;93.30;;;;;;2097146;28;20186;-75
2022/02/06 06:49:29;;;;;;;4.10;1.37;;;2.50;93.30;;;;;;2087162;28;20193;-74
2022/02/06 06:50:33;;;;;;;6.87;1.40;;;2.50;93.10;;;;;;2088683;28;20191;-74
2022/02/06 06:51:34;;;;;;;3.70;1.58;;;2.50;93.30;;;;;;2088424;28;20193;-75
2022/02/06 06:52:35;;;;;;;4.07;1.73;;;2.40;93.20;;;;;;2091763;28;20255;-74
2022/02/06 06:53:39;;;;;;;4.63;1.47;;;2.30;94.10;;;;;;2097012;28;20273;-75
2022/02/06 06:54:45;;;;;;;2.78;1.92;;;2.30;94.30;;;;;;2085113;28;20206;-75
2022/02/06 06:55:51;;;;;;;4.10;3.17;;;2.40;94.20;;;;;;2081513;28;20165;-75
2022/02/06 06:57:00;;;;;;;2.30;1.50;;;2.40;94.10;;;;;;2082089;28;20212;-74
2022/02/06 06:58:39;;;;;;;4.90;1.30;;;2.40;94.30;;;;;;2088660;28;20232;-75
2022/02/06 07:00:54;;;;;;;4.53;1.83;;;2.40;94.00;;;;;;2085831;28;20263;-75
2022/02/06 07:03:26;;;;;;;2.15;1.30;;;2.30;95.50;;;;;;2067339;28;20229;-74
2022/02/06 07:04:27;;;;;;;4.93;1.92;;;2.30;95.50;;;;;;2084042;28;20194;-74
2022/02/06 07:05:27;;;;;;;7.20;2.37;;;2.40;95.40;;;;;;2080672;28;20190;-74
2022/02/06 07:06:28;;;;;;;4.33;1.97;;;2.40;95.20;;;;;;2088619;28;20187;-74
2022/02/06 07:07:30;;;;;;;3.80;1.77;;;2.40;95.00;;;;;;2089358;28;20183;-74
2022/02/06 07:08:31;;;;;;;3.28;1.20;;;2.40;94.70;;;;;;2088595;28;20612;-74
2022/02/06 07:09:31;;;;;;;5.60;1.23;;;2.40;94.60;;;;;;2088573;28;20192;-74
2022/02/06 07:10:32;;;;;;;4.17;1.30;;;2.40;95.40;;;;;;2089395;28;20253;-74
2022/02/06 07:11:33;;;;;;;3.73;1.37;;;2.40;95.30;;;;;;2089371;28;20188;-74
2022/02/06 07:12:34;;;;;;;5.03;1.50;;;2.40;95.40;;;;;;2080161;28;20671;-75
2022/02/06 07:13:34;;;;;;;2.57;1.10;;;2.40;95.10;;;;;;2072460;28;20583;-74
2022/02/06 07:14:36;;;;;;;7.57;1.40;;;2.40;95.10;;;;;;2088346;28;20753;-74
2022/02/06 07:15:37;;;;;;;5.90;1.40;;;2.30;95.50;;;;;;2088721;28;20191;-74
2022/02/06 07:16:37;;;;;;;3.20;1.40;;;2.30;95.80;;;;;;2072172;28;20641;-74
2022/02/06 07:17:38;;;;;;;4.37;1.17;;;2.30;95.80;;;;;;2080412;28;20188;-74
2022/02/06 07:18:39;;;;;;;2.00;1.13;;;2.30;95.80;;;;;;2072142;28;20191;-73
2022/02/06 07:19:41;;;;;;;3.00;1.63;;;2.30;95.90;;;;;;2080315;28;20273;-74
2022/02/06 07:20:42;;;;;;;1.58;0.90;;;2.40;96.00;;;;;;2088576;28;20178;-74
2022/02/06 07:21:42;;;;;;;4.20;1.47;;;2.40;96.10;;;;;;2080395;28;20546;-74
2022/02/06 07:22:45;;;;;;;3.43;1.13;;;2.40;95.90;;;;;;2088628;28;20221;-73
2022/02/06 07:23:45;;;;;;;3.33;1.33;;;2.30;96.10;;;;;;2080254;28;20191;-74
2022/02/06 07:24:48;;;;;;;3.83;1.47;;;2.30;96.40;;;;;;2072044;28;20206;-74
2022/02/06 07:25:51;;;;;;;6.88;2.92;;;2.30;96.50;;;;;;2080506;28;20186;-74